Time;durP1;ratioP1;P1;durP2;ratioP2;P2;SDS_P1;SDS_P2;PMS_P1;PMS_P2;Temp;Humidity;BMP_temperature;BMP_pressure;BME280_temperature;BME280_humidity;BME280_pressure;Samples;Min_cycle;Max_cycle;Signal;HPM_P1;HPM_P2
2023/06/23 00:00:29;;;;;;;2.58;2.38;;;23.40;60.00;;;;;;5056097;28;20175;-70
2023/06/23 00:02:55;;;;;;;2.25;2.15;;;23.40;60.00;;;;;;5055310;28;20175;-72
2023/06/23 00:05:20;;;;;;;2.92;1.98;;;23.40;60.90;;;;;;5054588;28;20270;-70
2023/06/23 00:07:46;;;;;;;2.28;2.10;;;23.40;60.00;;;;;;5055365;28;20290;-70
2023/06/23 00:10:12;;;;;;;2.35;2.00;;;23.40;60.00;;;;;;5055052;28;20520;-70
2023/06/23 00:12:41;;;;;;;3.50;2.30;;;23.40;60.00;;;;;;5054065;28;20646;-69
2023/06/23 00:15:09;;;;;;;2.78;2.58;;;23.40;60.00;;;;;;5055215;28;20206;-70
2023/06/23 00:17:38;;;;;;;2.22;2.05;;;23.40;60.00;;;;;;5055369;28;20187;-68
2023/06/23 00:20:09;;;;;;;2.13;2.03;;;23.40;60.00;;;;;;5054148;28;20167;-69
2023/06/23 00:22:35;;;;;;;2.80;2.60;;;23.40;60.00;;;;;;5055279;28;20175;-69
2023/06/23 00:25:00;;;;;;;2.80;2.35;;;23.40;60.00;;;;;;5055428;28;20171;-69
2023/06/23 00:27:26;;;;;;;4.30;2.20;;;23.40;60.00;;;;;;5054334;28;20265;-70
2023/06/23 00:29:51;;;;;;;2.63;2.10;;;23.40;60.00;;;;;;5054829;28;20228;-71
2023/06/23 00:32:17;;;;;;;2.47;2.28;;;23.30;59.90;;;;;;5054658;28;20183;-71
2023/06/23 00:34:42;;;;;;;4.22;2.88;;;23.30;59.90;;;;;;5054073;28;20175;-72
2023/06/23 00:37:09;;;;;;;2.45;2.20;;;23.30;59.90;;;;;;5054758;28;20197;-70
2023/06/23 00:39:34;;;;;;;2.53;2.33;;;23.40;60.00;;;;;;5054502;28;20281;-68
2023/06/23 00:42:03;;;;;;;2.40;2.20;;;23.30;59.90;;;;;;5053939;28;20653;-69
2023/06/23 00:44:29;;;;;;;2.40;2.20;;;23.30;59.90;;;;;;5054839;28;20184;-69
2023/06/23 00:46:54;;;;;;;2.45;2.25;;;23.30;59.90;;;;;;5053921;28;20215;-70
2023/06/23 00:49:20;;;;;;;2.70;2.50;;;23.30;60.70;;;;;;5053221;28;20556;-69
2023/06/23 00:51:46;;;;;;;3.70;2.20;;;23.30;60.70;;;;;;5054630;28;20182;-69
2023/06/23 00:54:12;;;;;;;2.45;2.25;;;23.30;59.90;;;;;;5052405;28;20233;-69
2023/06/23 00:56:37;;;;;;;2.33;2.13;;;23.30;59.90;;;;;;5053266;28;20186;-69
2023/06/23 00:59:03;;;;;;;2.17;1.98;;;23.30;59.90;;;;;;5053035;28;20190;-72
2023/06/23 01:01:31;;;;;;;2.88;2.63;;;23.30;59.90;;;;;;5053638;28;20649;-70
2023/06/23 01:03:58;;;;;;;2.40;2.20;;;23.30;59.90;;;;;;5052900;28;20213;-71
2023/06/23 01:06:37;;;;;;;3.10;2.25;;;23.30;59.80;;;;;;5053086;28;20211;-70
2023/06/23 01:09:16;;;;;;;2.53;2.33;;;23.30;59.80;;;;;;5052295;28;20213;-69
2023/06/23 01:11:59;;;;;;;2.85;2.55;;;23.20;59.80;;;;;;5037936;28;20258;-69
2023/06/23 01:14:30;;;;;;;2.92;2.35;;;23.20;59.80;;;;;;5037468;28;20247;-68
2023/06/23 01:17:00;;;;;;;2.95;2.55;;;23.20;59.80;;;;;;5053179;28;20183;-69
2023/06/23 01:19:51;;;;;;;2.42;2.15;;;23.20;59.70;;;;;;5053038;28;20229;-69
2023/06/23 01:22:36;;;;;;;2.17;2.05;;;23.20;59.80;;;;;;5052944;28;20168;-68
2023/06/23 01:25:20;;;;;;;2.78;2.00;;;23.20;59.80;;;;;;5051713;28;20186;-69
2023/06/23 01:27:58;;;;;;;2.53;2.20;;;23.20;59.80;;;;;;5052717;28;20237;-70
2023/06/23 01:30:27;;;;;;;2.45;2.25;;;23.20;59.80;;;;;;5053061;28;20653;-71
2023/06/23 01:32:59;;;;;;;2.47;2.28;;;23.20;59.80;;;;;;5052466;28;20639;-72
2023/06/23 01:35:28;;;;;;;2.55;2.35;;;23.20;60.30;;;;;;5036411;28;20181;-71
2023/06/23 01:38:00;;;;;;;2.35;2.15;;;23.20;59.80;;;;;;5035074;28;20231;-69
2023/06/23 01:40:25;;;;;;;3.35;2.28;;;23.20;59.80;;;;;;5052642;28;20189;-69
2023/06/23 01:42:58;;;;;;;2.40;2.20;;;23.20;59.80;;;;;;5035988;28;20176;-69
2023/06/23 01:45:24;;;;;;;2.58;2.38;;;23.20;60.60;;;;;;5051544;28;20202;-69
2023/06/23 01:47:50;;;;;;;2.65;2.45;;;23.20;59.80;;;;;;5053513;28;20222;-70
2023/06/23 01:50:16;;;;;;;2.97;2.10;;;23.20;59.80;;;;;;5052331;28;20229;-69
2023/06/23 01:52:42;;;;;;;2.70;2.50;;;23.10;59.70;;;;;;5052158;28;20174;-69
2023/06/23 01:55:07;;;;;;;2.50;2.30;;;23.10;59.70;;;;;;5051799;28;20261;-71
2023/06/23 01:57:35;;;;;;;2.20;2.00;;;23.10;59.70;;;;;;5035052;28;20179;-71
2023/06/23 02:00:01;;;;;;;2.72;2.53;;;23.20;60.10;;;;;;5051782;28;20693;-72
2023/06/23 02:02:27;;;;;;;3.17;2.50;;;23.20;59.80;;;;;;5035648;28;20193;-71
2023/06/23 02:04:54;;;;;;;3.03;2.42;;;23.20;59.80;;;;;;5034672;28;20172;-71
2023/06/23 02:07:19;;;;;;;2.10;1.90;;;23.10;59.80;;;;;;5035409;28;20624;-70
2023/06/23 02:09:45;;;;;;;2.38;2.13;;;23.10;59.70;;;;;;5035612;28;20681;-69
2023/06/23 02:12:10;;;;;;;2.53;2.30;;;23.10;59.70;;;;;;5052157;28;20684;-70
2023/06/23 02:14:37;;;;;;;2.65;2.45;;;23.10;59.80;;;;;;5053162;28;20641;-69
2023/06/23 02:17:03;;;;;;;2.30;2.10;;;23.10;59.70;;;;;;5051487;28;20182;-70
2023/06/23 02:19:29;;;;;;;2.53;2.33;;;23.10;59.70;;;;;;5051158;28;20197;-69
2023/06/23 02:21:55;;;;;;;2.53;2.35;;;23.10;59.70;;;;;;5052037;28;20179;-69
2023/06/23 02:24:20;;;;;;;2.28;2.08;;;23.10;59.70;;;;;;5053039;28;20661;-69
2023/06/23 02:26:47;;;;;;;2.38;2.17;;;23.10;59.70;;;;;;5050965;28;20266;-69
2023/06/23 02:29:12;;;;;;;2.50;2.30;;;23.10;59.70;;;;;;5035201;28;20241;-71
2023/06/23 02:31:38;;;;;;;2.22;2.13;;;23.10;59.70;;;;;;5051672;28;20665;-72
2023/06/23 02:34:03;;;;;;;2.60;2.35;;;23.10;59.70;;;;;;5051630;28;20171;-71
2023/06/23 02:36:37;;;;;;;2.20;2.00;;;23.10;59.70;;;;;;5051597;28;20265;-70
2023/06/23 02:39:04;;;;;;;2.50;2.30;;;23.00;59.70;;;;;;5052457;28;20226;-69
2023/06/23 02:41:31;;;;;;;2.33;2.17;;;23.10;59.70;;;;;;5050999;28;20539;-69
2023/06/23 02:43:57;;;;;;;2.78;2.38;;;23.00;59.70;;;;;;5034820;28;20592;-69
2023/06/23 02:46:24;;;;;;;2.45;2.13;;;23.00;59.70;;;;;;5051113;28;20175;-69
2023/06/23 02:48:50;;;;;;;2.20;2.03;;;23.00;59.70;;;;;;5034886;28;20215;-69
2023/06/23 02:51:18;;;;;;;4.07;2.78;;;23.00;59.60;;;;;;5052553;28;20254;-68
2023/06/23 02:54:01;;;;;;;2.40;2.20;;;23.00;59.70;;;;;;5051859;28;20214;-69
2023/06/23 02:56:27;;;;;;;2.45;2.25;;;23.00;59.70;;;;;;5051609;28;20171;-70
2023/06/23 02:58:57;;;;;;;2.72;2.42;;;23.00;59.70;;;;;;5035014;28;20640;-71
2023/06/23 03:01:23;;;;;;;2.47;2.28;;;23.00;59.70;;;;;;5050622;28;20175;-71
2023/06/23 03:03:49;;;;;;;2.38;2.10;;;23.00;59.70;;;;;;5051527;28;20229;-71
2023/06/23 03:06:18;;;;;;;2.65;2.45;;;23.00;59.70;;;;;;5052414;28;20277;-70
2023/06/23 03:08:45;;;;;;;2.67;2.40;;;23.00;59.70;;;;;;5051809;28;20211;-69
2023/06/23 03:11:11;;;;;;;2.40;2.20;;;23.00;59.60;;;;;;5051041;28;20268;-69
2023/06/23 03:13:36;;;;;;;3.80;2.53;;;23.00;59.70;;;;;;5052386;28;20229;-68
2023/06/23 03:16:02;;;;;;;2.63;2.42;;;23.00;59.70;;;;;;5051583;28;20175;-69
2023/06/23 03:18:29;;;;;;;2.53;2.33;;;23.00;59.70;;;;;;5051467;28;20206;-68
2023/06/23 03:20:54;;;;;;;2.30;2.15;;;23.00;59.60;;;;;;5051359;28;20176;-69
2023/06/23 03:23:20;;;;;;;3.00;2.58;;;23.00;59.70;;;;;;5050270;28;20322;-68
2023/06/23 03:25:46;;;;;;;2.55;2.30;;;23.00;59.60;;;;;;5034696;28;20607;-70
2023/06/23 03:28:14;;;;;;;2.60;2.40;;;23.00;59.70;;;;;;5051998;28;20210;-69
2023/06/23 03:31:00;;;;;;;2.70;2.45;;;23.00;59.70;;;;;;5051763;28;20232;-71
2023/06/23 03:33:32;;;;;;;2.53;2.33;;;23.00;59.70;;;;;;5051464;28;20268;-72
2023/06/23 03:36:00;;;;;;;2.67;2.47;;;22.90;59.60;;;;;;5050355;28;20894;-70
2023/06/23 03:38:26;;;;;;;2.65;2.45;;;22.90;59.60;;;;;;5034681;28;20661;-69
2023/06/23 03:40:58;;;;;;;2.72;2.53;;;23.00;59.70;;;;;;5052042;28;20282;-69
2023/06/23 03:43:50;;;;;;;2.75;2.55;;;22.90;59.60;;;;;;5051612;28;20179;-69
2023/06/23 03:46:23;;;;;;;3.10;2.80;;;22.90;59.60;;;;;;5051196;28;20183;-69
2023/06/23 03:48:51;;;;;;;2.80;2.60;;;22.90;59.60;;;;;;5054654;28;20246;-69
2023/06/23 03:51:17;;;;;;;2.53;2.33;;;22.90;59.60;;;;;;5037297;28;20175;-68
2023/06/23 03:53:43;;;;;;;2.80;2.60;;;22.90;59.60;;;;;;5038051;28;20183;-69
2023/06/23 03:56:08;;;;;;;2.17;2.08;;;22.90;59.60;;;;;;5037687;28;20658;-69
2023/06/23 03:58:34;;;;;;;2.40;2.28;;;22.90;59.60;;;;;;5054971;28;20660;-69
2023/06/23 04:01:00;;;;;;;2.63;2.42;;;22.90;59.60;;;;;;5053987;28;20194;-72
2023/06/23 04:03:25;;;;;;;2.10;2.00;;;22.90;59.60;;;;;;5037802;28;20198;-70
2023/06/23 04:05:51;;;;;;;2.67;2.47;;;22.90;59.60;;;;;;5036914;28;20294;-71
2023/06/23 04:08:17;;;;;;;2.58;2.38;;;22.90;59.70;;;;;;5053728;28;20306;-69
2023/06/23 04:10:43;;;;;;;2.50;2.30;;;22.90;59.60;;;;;;5054287;28;20187;-70
2023/06/23 04:13:08;;;;;;;2.78;2.58;;;22.90;59.60;;;;;;5053032;28;20194;-69
2023/06/23 04:15:35;;;;;;;2.50;2.30;;;22.90;59.60;;;;;;5037585;28;20254;-69
2023/06/23 04:18:01;;;;;;;2.80;2.60;;;22.90;59.60;;;;;;5053178;28;20218;-69
2023/06/23 04:20:26;;;;;;;2.90;2.70;;;22.90;59.60;;;;;;5053850;28;21016;-68
2023/06/23 04:22:53;;;;;;;2.53;2.33;;;22.90;59.50;;;;;;5054096;28;20182;-69
2023/06/23 04:25:19;;;;;;;2.55;2.35;;;22.90;59.60;;;;;;5053070;28;20237;-69
2023/06/23 04:27:45;;;;;;;2.67;2.47;;;22.90;59.50;;;;;;5053871;28;20629;-69
2023/06/23 04:30:11;;;;;;;2.80;2.60;;;22.90;59.60;;;;;;5037230;28;20167;-72
2023/06/23 04:32:37;;;;;;;3.08;2.60;;;22.90;59.60;;;;;;5053154;28;20175;-71
2023/06/23 04:35:03;;;;;;;2.40;2.20;;;22.90;59.60;;;;;;5053356;28;20179;-70
2023/06/23 04:37:37;;;;;;;2.83;2.42;;;22.90;59.60;;;;;;5054777;28;20175;-69
2023/06/23 04:40:22;;;;;;;2.72;2.53;;;22.90;59.60;;;;;;5052627;28;20290;-69
2023/06/23 04:42:50;;;;;;;3.40;2.60;;;22.90;59.60;;;;;;5055027;28;20233;-68
2023/06/23 04:45:26;;;;;;;2.70;2.50;;;22.90;59.60;;;;;;5053237;28;20194;-69
2023/06/23 04:48:00;;;;;;;2.85;2.63;;;22.90;59.60;;;;;;5053895;28;20225;-68
2023/06/23 04:50:27;;;;;;;3.15;2.45;;;22.90;59.60;;;;;;5053441;28;20536;-68
2023/06/23 04:52:53;;;;;;;2.88;2.60;;;22.90;59.60;;;;;;5053432;28;20175;-69
2023/06/23 04:55:19;;;;;;;3.00;2.67;;;22.90;59.50;;;;;;5035843;28;20206;-69
2023/06/23 04:57:46;;;;;;;2.95;2.75;;;22.90;59.50;;;;;;5053197;28;20186;-70
2023/06/23 05:00:12;;;;;;;2.88;2.65;;;22.90;59.50;;;;;;5052458;28;20236;-71
2023/06/23 05:02:37;;;;;;;2.63;2.42;;;22.90;59.50;;;;;;5053400;28;20210;-70
2023/06/23 05:05:03;;;;;;;2.65;2.45;;;22.90;59.40;;;;;;5054081;28;20203;-71
2023/06/23 05:07:29;;;;;;;3.22;2.95;;;23.00;59.50;;;;;;5053565;28;20222;-69
2023/06/23 05:09:54;;;;;;;3.50;3.20;;;22.90;59.30;;;;;;5036611;28;20174;-69
2023/06/23 05:12:20;;;;;;;3.35;3.05;;;22.90;59.30;;;;;;5052697;28;20575;-68
2023/06/23 05:14:47;;;;;;;3.55;3.15;;;23.00;59.40;;;;;;5035618;28;20202;-70
2023/06/23 05:17:13;;;;;;;3.88;2.70;;;23.00;59.40;;;;;;5053782;28;20622;-69
2023/06/23 05:19:43;;;;;;;3.22;2.92;;;23.00;59.40;;;;;;5052755;28;20228;-69
2023/06/23 05:22:10;;;;;;;3.05;2.85;;;23.00;59.40;;;;;;5052980;28;20180;-68
2023/06/23 05:24:41;;;;;;;2.95;2.75;;;23.00;59.40;;;;;;5052767;28;20635;-68
2023/06/23 05:27:08;;;;;;;3.08;2.88;;;23.00;59.40;;;;;;5053537;28;20265;-70
2023/06/23 05:29:41;;;;;;;3.03;2.83;;;23.00;59.40;;;;;;5035711;28;20305;-70
2023/06/23 05:32:07;;;;;;;2.75;2.55;;;22.90;59.30;;;;;;5053875;28;20190;-72
2023/06/23 05:34:33;;;;;;;3.72;3.15;;;23.00;59.40;;;;;;5035899;28;20546;-71
2023/06/23 05:37:00;;;;;;;3.67;2.95;;;23.00;59.40;;;;;;5034896;28;20176;-71
2023/06/23 05:39:26;;;;;;;3.47;3.10;;;23.00;59.40;;;;;;5052258;28;20227;-69
2023/06/23 05:41:51;;;;;;;3.35;3.13;;;23.00;59.40;;;;;;5052361;28;20539;-68
2023/06/23 05:44:17;;;;;;;4.35;3.10;;;23.00;59.40;;;;;;5052409;28;20178;-69
2023/06/23 05:46:42;;;;;;;3.28;2.97;;;23.00;59.40;;;;;;5053399;28;20187;-69
2023/06/23 05:49:13;;;;;;;3.92;2.88;;;23.00;59.40;;;;;;5035339;28;20190;-70
2023/06/23 05:51:39;;;;;;;3.10;2.90;;;23.00;59.40;;;;;;5051868;28;20186;-69
2023/06/23 05:54:08;;;;;;;3.80;3.30;;;23.00;59.40;;;;;;5035214;28;20179;-69
2023/06/23 05:56:39;;;;;;;3.33;3.13;;;23.00;59.40;;;;;;5051408;28;20627;-69
2023/06/23 05:59:06;;;;;;;3.13;2.83;;;23.00;59.40;;;;;;5052988;28;20665;-71
2023/06/23 06:01:34;;;;;;;3.45;3.10;;;23.00;59.40;;;;;;5052211;28;20175;-71
2023/06/23 06:04:04;;;;;;;3.33;3.00;;;23.00;59.40;;;;;;5052333;28;20240;-71
2023/06/23 06:06:30;;;;;;;3.25;2.97;;;23.00;59.40;;;;;;5035895;28;20179;-70
2023/06/23 06:08:57;;;;;;;3.05;2.83;;;23.00;60.00;;;;;;5034881;28;20287;-70
2023/06/23 06:11:22;;;;;;;3.05;2.75;;;23.00;59.40;;;;;;5050935;28;20175;-70
2023/06/23 06:13:48;;;;;;;3.42;3.13;;;23.00;59.40;;;;;;5051950;28;20689;-69
2023/06/23 06:16:14;;;;;;;3.25;2.95;;;23.00;59.30;;;;;;5034867;28;20544;-69
2023/06/23 06:18:39;;;;;;;4.15;2.90;;;23.00;59.30;;;;;;5051197;28;20175;-68
2023/06/23 06:21:05;;;;;;;3.33;3.10;;;23.00;59.30;;;;;;5052561;28;20521;-69
2023/06/23 06:23:30;;;;;;;3.10;2.90;;;23.00;59.30;;;;;;5035365;28;20171;-68
2023/06/23 06:25:56;;;;;;;3.28;3.00;;;23.10;59.30;;;;;;5034197;28;20171;-69
2023/06/23 06:28:23;;;;;;;3.25;2.95;;;23.10;59.40;;;;;;5053057;28;20673;-70
2023/06/23 06:30:49;;;;;;;3.60;3.30;;;23.00;59.40;;;;;;5052975;28;20179;-71
2023/06/23 06:33:15;;;;;;;3.50;3.08;;;23.10;59.40;;;;;;5051897;28;20675;-72
2023/06/23 06:35:41;;;;;;;4.22;3.10;;;23.10;59.40;;;;;;5035015;28;20648;-71
2023/06/23 06:38:06;;;;;;;3.22;2.92;;;23.10;59.40;;;;;;5051431;28;20227;-71
2023/06/23 06:40:32;;;;;;;3.03;2.83;;;23.10;59.40;;;;;;5050983;28;20634;-68
2023/06/23 06:42:57;;;;;;;3.15;2.95;;;23.10;59.40;;;;;;5051218;28;20186;-69
2023/06/23 06:45:23;;;;;;;3.40;3.10;;;23.10;59.40;;;;;;5052535;28;20217;-69
2023/06/23 06:47:48;;;;;;;3.08;2.88;;;23.10;59.50;;;;;;5052042;28;20210;-64
2023/06/23 06:50:15;;;;;;;4.07;3.13;;;23.10;59.50;;;;;;5051083;28;20673;-64
2023/06/23 06:52:40;;;;;;;4.05;3.70;;;23.10;59.50;;;;;;5050834;28;20217;-63
2023/06/23 06:55:09;;;;;;;4.75;3.50;;;23.10;59.60;;;;;;5052315;28;20206;-63
2023/06/23 06:57:35;;;;;;;9.50;4.45;;;23.10;59.70;;;;;;5052856;28;20549;-65
2023/06/23 07:00:04;;;;;;;8.93;3.90;;;23.10;59.60;;;;;;5051607;28;20171;-65
2023/06/23 07:02:30;;;;;;;6.80;4.40;;;23.10;59.60;;;;;;5052526;28;20182;-65
2023/06/23 07:04:56;;;;;;;6.90;4.95;;;23.10;59.80;;;;;;5050630;28;20187;-65
2023/06/23 07:07:21;;;;;;;5.25;4.45;;;23.10;59.90;;;;;;5051927;28;20214;-65
2023/06/23 07:09:47;;;;;;;5.82;4.60;;;23.10;59.90;;;;;;5052679;28;20171;-64
2023/06/23 07:12:12;;;;;;;4.30;3.75;;;23.20;59.90;;;;;;5052252;28;20179;-64
2023/06/23 07:14:38;;;;;;;5.00;4.28;;;23.20;59.80;;;;;;5051611;28;20175;-64
2023/06/23 07:17:04;;;;;;;6.45;4.03;;;23.10;59.80;;;;;;5052154;28;20175;-64
2023/06/23 07:19:31;;;;;;;4.65;4.18;;;23.20;59.90;;;;;;5052278;28;20176;-64
2023/06/23 07:21:56;;;;;;;6.22;4.07;;;23.20;59.90;;;;;;5052456;28;20528;-64
2023/06/23 07:24:22;;;;;;;4.75;4.15;;;23.20;59.90;;;;;;5056284;28;20170;-63
2023/06/23 07:26:47;;;;;;;5.55;3.70;;;23.20;59.90;;;;;;5056189;28;20189;-64
2023/06/23 07:29:13;;;;;;;4.90;4.45;;;23.20;59.90;;;;;;5055060;28;20209;-64
2023/06/23 07:31:39;;;;;;;4.70;3.30;;;23.20;59.80;;;;;;5056133;28;20183;-66
2023/06/23 07:34:05;;;;;;;5.22;3.58;;;23.20;59.80;;;;;;5055742;28;20186;-65
2023/06/23 07:36:30;;;;;;;4.28;3.90;;;23.20;59.80;;;;;;5054086;28;20642;-64
2023/06/23 07:38:56;;;;;;;4.68;4.15;;;23.30;59.80;;;;;;5055448;28;20258;-65
2023/06/23 07:41:21;;;;;;;3.72;3.42;;;23.20;59.70;;;;;;5055833;28;20171;-64
2023/06/23 07:43:47;;;;;;;4.50;3.70;;;23.30;59.80;;;;;;5055065;28;20179;-64
2023/06/23 07:46:12;;;;;;;3.90;3.60;;;23.30;60.50;;;;;;5055533;28;20171;-64
2023/06/23 07:48:38;;;;;;;4.45;3.63;;;23.30;59.70;;;;;;5055653;28;20249;-64
2023/06/23 07:51:04;;;;;;;3.90;3.50;;;23.30;59.70;;;;;;5054962;28;20171;-64
2023/06/23 07:53:29;;;;;;;3.60;3.30;;;23.30;59.60;;;;;;5055764;28;20202;-63
2023/06/23 07:55:55;;;;;;;3.22;2.92;;;23.30;59.60;;;;;;5055053;28;20221;-64
2023/06/23 07:58:20;;;;;;;3.33;3.03;;;23.40;59.70;;;;;;5055365;28;20195;-65
2023/06/23 08:00:46;;;;;;;3.50;3.30;;;23.30;59.50;;;;;;5055497;28;20179;-65
2023/06/23 08:03:12;;;;;;;4.05;3.67;;;23.40;59.60;;;;;;5054526;28;20183;-66
2023/06/23 08:05:38;;;;;;;3.75;3.35;;;23.40;59.60;;;;;;5055707;28;20193;-66
2023/06/23 08:08:04;;;;;;;3.58;3.28;;;23.40;59.60;;;;;;5055143;28;20237;-65
2023/06/23 08:10:29;;;;;;;3.53;3.22;;;23.40;59.60;;;;;;5054598;28;20646;-65
2023/06/23 08:12:55;;;;;;;3.53;3.22;;;23.40;59.50;;;;;;5055232;28;20206;-65
2023/06/23 08:15:20;;;;;;;4.40;3.47;;;23.40;59.60;;;;;;5055241;28;20178;-64
2023/06/23 08:17:46;;;;;;;3.58;3.38;;;23.40;59.50;;;;;;5054463;28;20179;-64
2023/06/23 08:20:12;;;;;;;3.70;3.40;;;23.50;59.60;;;;;;5055064;28;20179;-64
2023/06/23 08:22:39;;;;;;;3.50;3.20;;;23.50;60.20;;;;;;5055250;28;20179;-65
2023/06/23 08:25:06;;;;;;;3.38;3.08;;;23.50;59.40;;;;;;5054103;28;20187;-65
2023/06/23 08:27:32;;;;;;;4.40;3.90;;;23.50;59.40;;;;;;5054943;28;20561;-65
2023/06/23 08:29:57;;;;;;;3.50;3.20;;;23.50;59.40;;;;;;5054678;28;20175;-66
2023/06/23 08:32:23;;;;;;;3.55;3.28;;;23.50;59.40;;;;;;5053857;28;20179;-66
2023/06/23 08:34:49;;;;;;;3.83;3.45;;;23.50;59.30;;;;;;5054762;28;20171;-67
2023/06/23 08:37:14;;;;;;;3.33;3.13;;;23.60;59.40;;;;;;5054755;28;20175;-65
2023/06/23 08:39:40;;;;;;;3.75;3.45;;;23.60;59.40;;;;;;5053946;28;20226;-64
2023/06/23 08:42:06;;;;;;;3.45;3.15;;;23.60;59.40;;;;;;5054533;28;20634;-65
2023/06/23 08:44:32;;;;;;;3.92;3.53;;;23.60;59.30;;;;;;5036909;28;20186;-64
2023/06/23 08:46:58;;;;;;;3.58;3.28;;;23.60;59.30;;;;;;5052344;28;20171;-65
2023/06/23 08:49:24;;;;;;;3.47;3.17;;;23.60;59.30;;;;;;5053392;28;20232;-65
2023/06/23 08:51:50;;;;;;;3.50;3.20;;;23.60;59.20;;;;;;5053545;28;20266;-64
2023/06/23 08:54:15;;;;;;;4.00;3.40;;;23.60;59.20;;;;;;5053659;28;20353;-64
2023/06/23 08:56:45;;;;;;;4.38;3.97;;;23.60;59.20;;;;;;5036753;28;20257;-64
2023/06/23 08:59:14;;;;;;;3.60;3.30;;;23.70;59.30;;;;;;5053354;28;20225;-66
2023/06/23 09:01:39;;;;;;;3.90;3.50;;;23.70;59.20;;;;;;5052982;28;20669;-65
2023/06/23 09:04:05;;;;;;;4.00;3.53;;;23.70;59.20;;;;;;5054260;28;20179;-66
2023/06/23 09:06:30;;;;;;;4.78;3.80;;;23.60;59.20;;;;;;5053772;28;20270;-66
2023/06/23 09:08:56;;;;;;;3.58;3.28;;;23.70;59.20;;;;;;5053978;28;20211;-65
2023/06/23 09:11:22;;;;;;;3.65;3.35;;;23.70;59.20;;;;;;5053012;28;20178;-65
2023/06/23 09:13:48;;;;;;;4.45;3.60;;;23.70;59.70;;;;;;5053356;28;20175;-65
2023/06/23 09:16:13;;;;;;;3.75;3.45;;;23.70;59.00;;;;;;5036026;28;20213;-64
2023/06/23 09:18:40;;;;;;;3.63;3.33;;;23.70;59.00;;;;;;5036176;28;20657;-64
2023/06/23 09:21:07;;;;;;;3.70;3.38;;;23.70;59.00;;;;;;5053106;28;20183;-64
2023/06/23 09:23:33;;;;;;;3.50;3.20;;;23.70;59.00;;;;;;5054098;28;20179;-64
2023/06/23 09:25:59;;;;;;;4.55;3.92;;;23.70;59.20;;;;;;5053688;28;20210;-64
2023/06/23 09:28:28;;;;;;;3.95;3.65;;;23.80;58.90;;;;;;5053078;28;20243;-65
2023/06/23 09:30:56;;;;;;;3.33;3.13;;;23.80;58.90;;;;;;5053800;28;20642;-65
2023/06/23 09:33:22;;;;;;;3.80;3.50;;;23.80;59.40;;;;;;5036340;28;20175;-65
2023/06/23 09:35:53;;;;;;;3.80;3.50;;;23.80;58.80;;;;;;5053469;28;20565;-65
2023/06/23 09:38:26;;;;;;;3.95;3.65;;;23.80;58.70;;;;;;5053361;28;20318;-65
2023/06/23 09:41:15;;;;;;;4.28;3.90;;;23.80;58.70;;;;;;5053634;28;20175;-64
2023/06/23 09:43:42;;;;;;;4.28;3.88;;;23.80;58.60;;;;;;5053071;28;20175;-64
2023/06/23 09:46:08;;;;;;;3.42;3.13;;;23.80;58.50;;;;;;5052715;28;20229;-64
2023/06/23 09:48:33;;;;;;;3.97;3.58;;;23.80;58.40;;;;;;5052961;28;20219;-64
2023/06/23 09:51:00;;;;;;;3.78;3.47;;;23.90;58.40;;;;;;5053115;28;20279;-64
2023/06/23 09:53:26;;;;;;;4.35;3.53;;;23.90;58.30;;;;;;5053444;28;20179;-64
2023/06/23 09:55:52;;;;;;;3.90;3.60;;;23.90;58.20;;;;;;5051315;28;20220;-64
2023/06/23 09:58:18;;;;;;;3.28;3.05;;;23.90;58.10;;;;;;5053249;28;20538;-65
2023/06/23 10:00:43;;;;;;;3.53;3.22;;;24.00;58.10;;;;;;5053391;28;20179;-66
2023/06/23 10:03:09;;;;;;;4.03;3.38;;;24.00;58.00;;;;;;5052259;28;20538;-66
2023/06/23 10:05:35;;;;;;;3.65;3.35;;;24.00;58.20;;;;;;5052204;28;20223;-65
2023/06/23 10:08:13;;;;;;;3.70;3.40;;;24.00;58.00;;;;;;5053432;28;20657;-66
2023/06/23 10:10:43;;;;;;;3.63;3.33;;;24.00;58.10;;;;;;5052672;28;20274;-66
2023/06/23 10:13:09;;;;;;;4.22;3.38;;;24.00;58.00;;;;;;5053016;28;20197;-65
2023/06/23 10:15:39;;;;;;;3.55;3.25;;;23.90;58.30;;;;;;5053269;28;20190;-64
2023/06/23 10:18:04;;;;;;;3.80;3.50;;;23.90;58.20;;;;;;5034839;28;20183;-65
2023/06/23 10:20:30;;;;;;;3.78;3.40;;;23.90;58.10;;;;;;5052956;28;20182;-65
2023/06/23 10:22:56;;;;;;;3.60;3.30;;;24.00;58.20;;;;;;5052599;28;20175;-65
2023/06/23 10:25:21;;;;;;;3.38;3.10;;;24.00;58.20;;;;;;5052463;28;20175;-64
2023/06/23 10:27:47;;;;;;;5.18;3.50;;;24.00;58.20;;;;;;5051736;28;20213;-65
2023/06/23 10:30:12;;;;;;;3.38;3.08;;;24.00;58.40;;;;;;5034804;28;20170;-64
2023/06/23 10:32:38;;;;;;;3.35;3.15;;;24.00;58.40;;;;;;5034398;28;20237;-65
2023/06/23 10:35:08;;;;;;;4.28;3.53;;;24.00;58.60;;;;;;5034889;28;20533;-67
2023/06/23 10:37:33;;;;;;;4.30;3.90;;;23.90;58.70;;;;;;5052585;28;20649;-66
2023/06/23 10:40:04;;;;;;;3.78;3.47;;;23.90;58.70;;;;;;5050770;28;20175;-66
2023/06/23 10:42:31;;;;;;;3.95;3.60;;;24.00;58.70;;;;;;5052702;28;20580;-65
2023/06/23 10:44:56;;;;;;;3.80;3.40;;;24.00;58.70;;;;;;5050715;28;20556;-66
2023/06/23 10:47:22;;;;;;;3.88;3.35;;;24.00;58.50;;;;;;5034878;28;20211;-66
2023/06/23 10:49:47;;;;;;;3.90;3.50;;;24.00;58.40;;;;;;5052629;28;20569;-65
2023/06/23 10:52:14;;;;;;;3.47;3.17;;;24.00;58.30;;;;;;5050770;28;20648;-66
2023/06/23 10:54:39;;;;;;;4.05;3.75;;;24.00;58.20;;;;;;5052966;28;20179;-66
2023/06/23 10:57:11;;;;;;;4.03;3.50;;;24.00;58.10;;;;;;5055417;28;20657;-66
2023/06/23 10:59:57;;;;;;;3.97;3.53;;;24.00;58.00;;;;;;5056108;28;20206;-67
2023/06/23 11:02:23;;;;;;;3.42;3.13;;;24.00;58.00;;;;;;5056644;28;20254;-67
2023/06/23 11:04:56;;;;;;;4.28;3.33;;;24.00;57.80;;;;;;5056671;28;20194;-67
2023/06/23 11:07:21;;;;;;;3.72;3.42;;;24.00;57.90;;;;;;5055757;28;20206;-67
2023/06/23 11:09:58;;;;;;;4.57;3.92;;;24.10;58.40;;;;;;5056566;28;20174;-65
2023/06/23 11:12:43;;;;;;;6.50;3.53;;;24.00;57.70;;;;;;5056403;28;20213;-66
2023/06/23 11:15:13;;;;;;;5.78;3.53;;;24.00;57.70;;;;;;5055717;28;20175;-65
2023/06/23 11:17:40;;;;;;;5.70;3.15;;;24.00;57.70;;;;;;5056858;28;20251;-65
2023/06/23 11:20:10;;;;;;;4.05;3.33;;;24.00;57.70;;;;;;5055559;28;20179;-66
2023/06/23 11:22:38;;;;;;;3.72;3.30;;;24.10;57.70;;;;;;5056369;28;20175;-65
2023/06/23 11:25:04;;;;;;;4.32;3.35;;;24.10;57.60;;;;;;5055984;28;20179;-66
2023/06/23 11:27:30;;;;;;;3.60;3.30;;;24.10;57.50;;;;;;5055433;28;20615;-65
2023/06/23 11:30:18;;;;;;;3.70;3.40;;;24.10;57.40;;;;;;5055971;28;20690;-66
2023/06/23 11:32:44;;;;;;;3.30;2.83;;;24.20;57.40;;;;;;5056286;28;20193;-66
2023/06/23 11:35:10;;;;;;;4.55;3.30;;;24.20;57.30;;;;;;5055127;28;20183;-66
2023/06/23 11:37:38;;;;;;;3.90;3.50;;;24.20;57.90;;;;;;5038215;28;20178;-66
2023/06/23 11:40:05;;;;;;;5.75;3.65;;;24.20;57.20;;;;;;5055455;28;20206;-59
2023/06/23 11:42:31;;;;;;;6.05;2.90;;;24.20;57.10;;;;;;5055366;28;20175;-57
2023/06/23 11:44:56;;;;;;;5.72;4.15;;;24.10;57.30;;;;;;5055633;28;20176;-59
2023/06/23 11:47:26;;;;;;;3.95;3.20;;;24.10;57.30;;;;;;5055756;28;20272;-57
2023/06/23 11:49:54;;;;;;;3.42;3.13;;;24.00;57.40;;;;;;5055182;28;20542;-58
2023/06/23 11:52:20;;;;;;;3.60;3.30;;;24.00;57.40;;;;;;5054216;28;20178;-57
2023/06/23 11:54:51;;;;;;;3.58;3.28;;;24.00;57.40;;;;;;5055926;28;20175;-58
2023/06/23 11:57:18;;;;;;;4.63;3.30;;;23.90;57.30;;;;;;5054889;28;20186;-58
2023/06/23 11:59:44;;;;;;;4.70;3.42;;;23.90;57.30;;;;;;5055558;28;20195;-58
2023/06/23 12:02:09;;;;;;;3.72;3.35;;;23.90;57.40;;;;;;5054522;28;20313;-58
2023/06/23 12:04:36;;;;;;;3.83;3.05;;;23.90;57.50;;;;;;5055505;28;20175;-57
2023/06/23 12:07:03;;;;;;;3.60;3.25;;;23.80;57.30;;;;;;5054833;28;20220;-58
2023/06/23 12:09:29;;;;;;;3.25;2.95;;;23.90;57.30;;;;;;5054378;28;20266;-58
2023/06/23 12:11:56;;;;;;;3.22;2.92;;;23.80;57.30;;;;;;5054371;28;20254;-59
2023/06/23 12:14:33;;;;;;;3.50;3.20;;;23.80;57.20;;;;;;5055395;28;20179;-58
2023/06/23 12:17:07;;;;;;;4.15;2.88;;;23.90;57.20;;;;;;5054288;28;20186;-58
2023/06/23 12:19:33;;;;;;;5.70;3.28;;;23.90;57.10;;;;;;5055109;28;20175;-58
2023/06/23 12:21:59;;;;;;;3.45;3.15;;;23.80;57.20;;;;;;5054991;28;20179;-57
2023/06/23 12:24:25;;;;;;;3.13;2.75;;;23.80;57.30;;;;;;5054487;28;20179;-57
2023/06/23 12:26:51;;;;;;;4.78;3.20;;;23.70;57.30;;;;;;5055068;28;20541;-56
2023/06/23 12:29:18;;;;;;;3.13;2.90;;;23.70;57.30;;;;;;5054879;28;20592;-57
2023/06/23 12:31:52;;;;;;;3.33;3.03;;;23.70;57.30;;;;;;5054365;28;20197;-57
2023/06/23 12:34:18;;;;;;;4.50;3.33;;;23.70;57.10;;;;;;5054901;28;20232;-57
2023/06/23 12:36:43;;;;;;;3.55;3.05;;;23.70;57.00;;;;;;5055081;28;20686;-58
2023/06/23 12:39:12;;;;;;;3.70;3.33;;;23.80;57.00;;;;;;5053835;28;20609;-57
2023/06/23 12:41:39;;;;;;;3.85;3.25;;;23.80;56.90;;;;;;5054918;28;20184;-58
2023/06/23 12:44:04;;;;;;;3.45;3.15;;;23.80;56.90;;;;;;5054587;28;20224;-58
2023/06/23 12:46:33;;;;;;;3.08;2.78;;;23.70;56.90;;;;;;5053877;28;20256;-58
2023/06/23 12:48:59;;;;;;;3.60;3.28;;;23.80;56.80;;;;;;5054494;28;20210;-58